createdAt,value
2023-03-24T00:04:59.671Z,22.60
2023-03-24T00:10:04.942Z,22.60
2023-03-24T00:15:11.414Z,22.50
2023-03-24T00:20:17.065Z,22.50
2023-03-24T00:25:23.843Z,22.50
2023-03-24T00:30:27.779Z,22.50
2023-03-24T00:35:31.412Z,22.40
2023-03-24T00:40:36.226Z,22.40
2023-03-24T00:45:46.420Z,22.40
2023-03-24T00:50:52.628Z,22.30
2023-03-24T00:55:58.654Z,22.30
2023-03-24T01:01:02.083Z,22.30
2023-03-24T01:06:05.650Z,22.20
2023-03-24T01:11:10.513Z,22.20
2023-03-24T01:16:13.909Z,22.20
2023-03-24T01:21:18.422Z,22.10
2023-03-24T01:26:23.428Z,22.10
2023-03-24T01:31:26.882Z,22.10
2023-03-24T01:36:30.550Z,22.10
2023-03-24T01:41:39.865Z,22.00
2023-03-24T01:46:44.499Z,22.00
2023-03-24T01:51:53.084Z,22.00
2023-03-24T01:57:05.043Z,22.00
2023-03-24T02:02:13.898Z,21.90
2023-03-24T02:07:58.679Z,21.90
2023-03-24T02:13:07.859Z,21.90
2023-03-24T02:18:21.147Z,21.90
2023-03-24T02:23:59.679Z,21.90
2023-03-24T02:29:19.936Z,21.80
2023-03-24T02:35:11.773Z,21.80
2023-03-24T02:40:39.278Z,21.80
2023-03-24T02:45:53.782Z,21.70
2023-03-24T02:51:03.746Z,21.80
2023-03-24T02:56:14.005Z,21.70
2023-03-24T03:01:31.284Z,21.70
2023-03-24T03:06:52.625Z,21.70
2023-03-24T03:12:01.033Z,21.60
2023-03-24T03:17:10.915Z,21.60
2023-03-24T03:22:17.948Z,21.60
2023-03-24T03:27:31.400Z,21.60
2023-03-24T03:32:39.258Z,21.50
2023-03-24T03:37:51.249Z,21.50
2023-03-24T03:42:56.049Z,21.50
2023-03-24T03:47:59.940Z,21.50
2023-03-24T03:53:06.707Z,21.50
2023-03-24T03:58:11.928Z,21.50
2023-03-24T04:03:54.133Z,21.50
2023-03-24T04:09:21.451Z,21.50
2023-03-24T04:14:57.985Z,21.40
2023-03-24T04:20:13.090Z,21.50
2023-03-24T04:25:29.822Z,21.50
2023-03-24T04:30:42.706Z,21.50
2023-03-24T04:35:54.583Z,21.40
2023-03-24T04:41:06.641Z,21.50
2023-03-24T04:46:18.260Z,21.40
2023-03-24T04:51:28.866Z,21.40
2023-03-24T04:56:46.152Z,21.40
2023-03-24T05:02:09.192Z,21.30
2023-03-24T05:07:24.547Z,21.40
2023-03-24T05:12:32.698Z,21.30
2023-03-24T05:18:03.560Z,21.20
2023-03-24T05:23:07.682Z,21.20
2023-03-24T05:28:11.124Z,21.30
2023-03-24T05:33:16.512Z,21.20
2023-03-24T05:38:20.467Z,21.20
2023-03-24T05:43:29.256Z,21.10
2023-03-24T05:48:43.330Z,21.10
2023-03-24T05:53:53.596Z,21.10
2023-03-24T05:59:07.183Z,21.10
2023-03-24T06:04:46.641Z,21.10
2023-03-24T06:09:53.045Z,21.10
2023-03-24T06:14:58.441Z,21.00
2023-03-24T06:20:05.901Z,21.00
2023-03-24T06:25:26.453Z,21.00
2023-03-24T06:30:49.176Z,20.90
2023-03-24T06:36:01.990Z,20.90
2023-03-24T06:41:08.104Z,20.90
2023-03-24T06:46:12.173Z,20.90
2023-03-24T06:51:21.012Z,20.90
2023-03-24T06:56:24.917Z,21.00
2023-03-24T07:01:35.366Z,21.10
2023-03-24T07:07:16.592Z,21.30
2023-03-24T07:12:31.169Z,21.40
2023-03-24T07:23:52.842Z,21.60
2023-03-24T07:29:01.229Z,21.60
2023-03-24T07:34:16.262Z,21.70
2023-03-24T07:39:28.089Z,21.80
2023-03-24T07:44:34.359Z,21.80
2023-03-24T07:49:39.312Z,21.90
2023-03-24T07:54:47.606Z,22.00
2023-03-24T08:00:16.149Z,22.00
2023-03-24T08:05:27.864Z,22.00
2023-03-24T08:10:53.194Z,22.00
2023-03-24T08:15:56.616Z,22.00
2023-03-24T08:21:01.700Z,22.10
2023-03-24T08:26:07.233Z,22.10
2023-03-24T08:31:11.388Z,22.10
2023-03-24T08:36:14.759Z,22.10
2023-03-24T08:41:19.438Z,22.10
2023-03-24T08:46:22.862Z,22.20
2023-03-24T08:51:26.776Z,22.20
2023-03-24T08:56:31.683Z,22.30
2023-03-24T09:01:35.486Z,22.30
2023-03-24T09:06:38.909Z,22.30
2023-03-24T09:11:43.569Z,22.40
2023-03-24T09:23:31.653Z,22.60
2023-03-24T09:28:36.364Z,22.70
2023-03-24T09:33:40.056Z,22.80
2023-03-24T09:38:43.436Z,22.90
2023-03-24T09:43:52.110Z,23.00
2023-03-24T09:48:57.547Z,23.10
2023-03-24T09:54:10.419Z,23.30
2023-03-24T09:59:19.553Z,23.30
2023-03-24T10:04:26.361Z,23.40
2023-03-24T10:09:32.533Z,23.60
2023-03-24T10:14:51.854Z,23.60
2023-03-24T10:20:02.626Z,23.70
2023-03-24T10:25:16.088Z,23.80
2023-03-24T10:30:24.266Z,23.90
2023-03-24T10:35:30.965Z,24.00
2023-03-24T10:40:34.872Z,24.20
2023-03-24T10:45:43.155Z,24.30
2023-03-24T10:50:49.126Z,24.40
2023-03-24T10:55:52.626Z,24.50
2023-03-24T11:00:59.956Z,24.60
2023-03-24T11:06:06.284Z,24.70
2023-03-24T11:11:30.420Z,24.80
2023-03-24T11:16:39.627Z,24.90
2023-03-24T11:21:44.912Z,25.00
2023-03-24T11:26:55.511Z,25.10
2023-03-24T11:32:02.024Z,25.20
2023-03-24T11:37:08.303Z,25.30
2023-03-24T11:42:17.437Z,25.30
2023-03-24T11:47:30.867Z,25.50
2023-03-24T11:52:39.661Z,25.60
2023-03-24T11:57:52.044Z,25.70
2023-03-24T12:03:24.582Z,25.80
2023-03-24T12:08:46.333Z,25.90
2023-03-24T12:20:22.673Z,26.00
2023-03-24T12:25:35.605Z,26.20
2023-03-24T12:30:47.462Z,26.20
2023-03-24T12:36:07.646Z,26.30
2023-03-24T12:41:26.046Z,26.30
2023-03-24T12:46:47.747Z,26.40
2023-03-24T12:52:08.600Z,26.50
2023-03-24T12:57:16.537Z,26.50
2023-03-24T13:02:28.361Z,26.60
2023-03-24T13:07:39.386Z,26.70
2023-03-24T13:12:47.091Z,26.70
2023-03-24T13:17:54.642Z,26.80
2023-03-24T13:23:03.668Z,26.90
2023-03-24T13:28:14.423Z,27.00
2023-03-24T13:33:21.435Z,27.00
2023-03-24T13:38:35.513Z,27.10
2023-03-24T13:43:48.246Z,27.00
2023-03-24T13:48:55.600Z,27.10
2023-03-24T13:54:08.976Z,27.10
2023-03-24T13:59:32.794Z,27.10
2023-03-24T14:04:46.828Z,27.10
2023-03-24T14:10:01.867Z,27.10
2023-03-24T14:15:18.182Z,27.20
2023-03-24T14:26:53.985Z,27.20
2023-03-24T14:32:17.153Z,27.20
2023-03-24T14:37:23.489Z,27.20
2023-03-24T14:42:56.404Z,27.20
2023-03-24T14:48:02.204Z,27.20
2023-03-24T14:53:06.190Z,27.10
2023-03-24T14:58:22.815Z,27.10
2023-03-24T15:03:33.612Z,27.00
2023-03-24T15:08:41.386Z,26.90
2023-03-24T15:13:51.311Z,26.80
2023-03-24T15:19:01.887Z,26.60
2023-03-24T15:24:27.490Z,26.50
2023-03-24T15:29:32.950Z,26.30
2023-03-24T15:34:40.894Z,26.20
2023-03-24T15:39:53.857Z,26.00
2023-03-24T15:45:15.497Z,25.80
2023-03-24T15:50:32.753Z,25.70
2023-03-24T15:55:37.660Z,25.50
2023-03-24T16:00:45.742Z,25.30
2023-03-24T16:05:51.475Z,25.30
2023-03-24T16:10:59.883Z,25.20
2023-03-24T16:16:23.040Z,25.00
2023-03-24T16:21:28.280Z,24.80
2023-03-24T16:26:33.062Z,24.60
2023-03-24T16:31:37.862Z,24.40
2023-03-24T16:36:41.238Z,24.30
2023-03-24T16:41:45.625Z,24.30
2023-03-24T16:46:53.766Z,24.20
2023-03-24T16:51:57.443Z,24.20
2023-03-24T16:57:00.917Z,24.10
2023-03-24T17:02:06.337Z,24.10
2023-03-24T17:07:10.777Z,24.00
2023-03-24T17:12:15.790Z,24.00
2023-03-24T17:17:20.991Z,23.90
2023-03-24T17:22:25.503Z,23.90
2023-03-24T17:27:30.050Z,23.80
2023-03-24T17:32:39.050Z,23.70
2023-03-24T17:37:43.723Z,23.70
2023-03-24T17:42:49.948Z,23.60
2023-03-24T17:47:55.773Z,23.60
2023-03-24T17:53:00.841Z,23.60
2023-03-24T17:58:11.034Z,23.50
2023-03-24T18:03:18.089Z,23.50
2023-03-24T18:08:22.257Z,23.50
2023-03-24T18:13:29.217Z,23.40
2023-03-24T18:18:35.005Z,23.40
2023-03-24T18:23:40.120Z,23.40
2023-03-24T18:28:49.179Z,23.40
2023-03-24T18:33:57.071Z,23.30
2023-03-24T18:39:04.548Z,23.40
2023-03-24T18:44:12.121Z,23.30
2023-03-24T18:49:19.430Z,23.30
2023-03-24T18:54:25.001Z,23.20
2023-03-24T18:59:31.536Z,23.20
2023-03-24T19:04:38.814Z,23.10
2023-03-24T19:09:44.951Z,23.10
2023-03-24T19:14:54.698Z,23.00
2023-03-24T19:20:01.648Z,23.00
2023-03-24T19:25:08.901Z,23.00
2023-03-24T19:30:17.910Z,22.90
2023-03-24T19:35:26.777Z,22.90
2023-03-24T19:40:33.378Z,22.80
2023-03-24T19:45:43.308Z,22.80
2023-03-24T19:50:53.679Z,22.80
2023-03-24T19:55:59.440Z,22.70
2023-03-24T20:01:05.563Z,22.70
2023-03-24T20:06:13.429Z,22.70
2023-03-24T20:11:18.521Z,22.60
2023-03-24T20:16:24.961Z,22.60
2023-03-24T20:21:33.437Z,22.60
2023-03-24T20:26:38.451Z,22.50
2023-03-24T20:31:44.069Z,22.50
2023-03-24T20:36:52.184Z,22.50
2023-03-24T20:41:58.019Z,22.50
2023-03-24T20:47:06.004Z,22.50
2023-03-24T20:52:15.079Z,22.40
2023-03-24T20:57:21.169Z,22.40
2023-03-24T21:02:26.247Z,22.30
2023-03-24T21:07:33.480Z,22.30
2023-03-24T21:12:52.773Z,22.30
2023-03-24T21:17:58.993Z,22.30
2023-03-24T21:23:05.187Z,22.20
2023-03-24T21:28:10.538Z,22.20
2023-03-24T21:33:14.677Z,22.10
2023-03-24T21:38:22.075Z,22.00
2023-03-24T21:43:27.448Z,22.00
2023-03-24T21:48:35.190Z,22.00
2023-03-24T21:53:40.016Z,21.90
2023-03-24T21:58:43.485Z,21.90
2023-03-24T22:03:46.912Z,21.80
2023-03-24T22:08:53.447Z,21.80
2023-03-24T22:13:56.763Z,21.80
2023-03-24T22:19:01.691Z,21.70
2023-03-24T22:24:07.690Z,21.70
2023-03-24T22:29:11.112Z,21.70
2023-03-24T22:34:14.785Z,21.60
2023-03-24T22:39:19.490Z,21.60
2023-03-24T22:44:23.179Z,21.50
2023-03-24T22:49:27.026Z,21.50
2023-03-24T22:54:32.158Z,21.40
2023-03-24T22:59:35.734Z,21.40
2023-03-24T23:04:40.496Z,21.20
2023-03-24T23:09:45.355Z,21.20
2023-03-24T23:14:48.681Z,21.10
2023-03-24T23:19:52.204Z,21.00
2023-03-24T23:25:01.900Z,20.90
2023-03-24T23:30:10.898Z,20.90
2023-03-24T23:35:14.652Z,20.80
2023-03-24T23:40:20.002Z,20.80
2023-03-24T23:45:23.565Z,20.70
2023-03-24T23:50:28.201Z,20.60
2023-03-24T23:55:33.025Z,20.50
